Time;durP1;ratioP1;P1;durP2;ratioP2;P2;SDS_P1;SDS_P2;PMS_P1;PMS_P2;Temp;Humidity;BMP_temperature;BMP_pressure;BME280_temperature;BME280_humidity;BME280_pressure;Samples;Min_cycle;Max_cycle;Signal;HPM_P1;HPM_P2
2023/06/28 00:02:12;;;;;;;2.83;2.60;;;14.80;99.90;;;;;;5035524;28;20503;-60
2023/06/28 00:04:40;;;;;;;2.90;2.70;;;14.70;99.90;;;;;;5038471;28;20492;-59
2023/06/28 00:07:09;;;;;;;6.30;2.83;;;14.70;99.90;;;;;;5034009;28;20464;-59
2023/06/28 00:09:37;;;;;;;3.10;2.20;;;14.70;99.90;;;;;;5036041;28;20506;-60
2023/06/28 00:12:05;;;;;;;2.77;2.40;;;14.70;99.90;;;;;;5032454;28;20487;-60
2023/06/28 00:14:35;;;;;;;5.33;3.03;;;14.60;99.90;;;;;;5024214;28;21031;-60
2023/06/28 00:17:03;;;;;;;3.33;3.03;;;14.60;99.90;;;;;;5019572;28;20494;-59
2023/06/28 00:19:32;;;;;;;4.37;3.13;;;14.60;99.90;;;;;;5023950;28;20476;-60
2023/06/28 00:22:03;;;;;;;3.13;2.80;;;14.60;99.90;;;;;;5019416;28;20491;-60
2023/06/28 00:24:31;;;;;;;3.60;3.00;;;14.50;99.90;;;;;;5020749;28;21050;-59
2023/06/28 00:26:59;;;;;;;4.63;2.67;;;14.50;99.90;;;;;;5015371;28;20475;-60
2023/06/28 00:29:27;;;;;;;3.13;2.67;;;14.50;99.90;;;;;;5019059;28;20476;-60
2023/06/28 00:31:56;;;;;;;6.20;2.87;;;14.50;99.90;;;;;;5016014;28;20541;-60
2023/06/28 00:34:24;;;;;;;5.70;2.90;;;14.50;99.90;;;;;;5018112;28;20482;-60
2023/06/28 00:36:52;;;;;;;4.10;2.90;;;14.50;99.90;;;;;;5022382;28;20551;-59
2023/06/28 00:39:20;;;;;;;4.47;3.00;;;14.40;99.90;;;;;;5030376;28;20927;-60
2023/06/28 00:41:48;;;;;;;3.20;2.60;;;14.40;99.90;;;;;;5030516;28;20552;-59
2023/06/28 00:44:16;;;;;;;3.73;2.60;;;14.40;99.90;;;;;;5026930;28;20499;-60
2023/06/28 00:46:44;;;;;;;3.60;2.63;;;14.40;99.90;;;;;;5017023;28;21074;-60
2023/06/28 00:49:13;;;;;;;5.20;3.20;;;14.30;99.90;;;;;;5017368;28;20507;-60
2023/06/28 00:51:42;;;;;;;2.80;2.50;;;14.30;99.90;;;;;;5011846;28;20498;-59
2023/06/28 00:54:10;;;;;;;3.23;2.93;;;14.30;99.90;;;;;;5017739;28;20973;-60
2023/06/28 00:56:38;;;;;;;6.03;3.03;;;14.30;99.90;;;;;;5018184;28;20505;-60
2023/06/28 00:59:07;;;;;;;3.63;2.77;;;14.30;99.90;;;;;;5018314;28;20499;-60
2023/06/28 01:01:36;;;;;;;3.37;2.80;;;14.30;99.90;;;;;;5015058;28;20486;-60
2023/06/28 01:04:06;;;;;;;2.87;2.67;;;14.30;99.90;;;;;;5017854;28;20561;-60
2023/06/28 01:06:38;;;;;;;3.23;2.93;;;14.30;99.90;;;;;;5013202;28;20471;-60
2023/06/28 01:09:08;;;;;;;5.87;2.80;;;14.30;99.90;;;;;;5015675;28;20504;-60
2023/06/28 01:11:37;;;;;;;3.77;2.93;;;14.20;99.90;;;;;;5012371;28;20578;-59
2023/06/28 01:14:06;;;;;;;4.07;2.53;;;14.20;99.90;;;;;;5017083;28;20484;-59
2023/06/28 01:16:34;;;;;;;3.90;2.90;;;14.20;99.90;;;;;;5011907;28;20498;-60
2023/06/28 01:19:03;;;;;;;4.67;3.00;;;14.10;99.90;;;;;;5015304;28;20475;-59
2023/06/28 01:21:34;;;;;;;3.43;2.83;;;14.10;99.90;;;;;;5013038;28;20514;-60
2023/06/28 01:24:03;;;;;;;4.23;3.00;;;14.10;99.90;;;;;;5017690;28;20471;-59
2023/06/28 01:26:33;;;;;;;7.07;2.83;;;14.10;99.90;;;;;;5013582;28;21016;-60
2023/06/28 01:29:01;;;;;;;3.53;3.03;;;14.10;99.90;;;;;;5014776;28;20477;-60
2023/06/28 01:31:30;;;;;;;4.97;3.37;;;14.10;99.90;;;;;;5015764;28;20483;-59
2023/06/28 01:33:58;;;;;;;3.13;2.73;;;14.00;99.90;;;;;;5019219;28;20498;-59
2023/06/28 01:36:26;;;;;;;3.30;3.00;;;14.00;99.90;;;;;;5016480;28;20480;-60
2023/06/28 01:38:55;;;;;;;4.30;2.90;;;14.00;99.90;;;;;;5018287;28;20475;-60
2023/06/28 01:41:26;;;;;;;3.83;3.10;;;14.00;99.90;;;;;;5017447;28;20835;-59
2023/06/28 01:43:55;;;;;;;5.07;2.90;;;14.00;99.90;;;;;;5019639;28;20478;-60
2023/06/28 01:46:23;;;;;;;4.70;3.50;;;14.00;99.90;;;;;;5020190;28;20570;-60
2023/06/28 01:48:51;;;;;;;3.77;3.30;;;14.00;99.90;;;;;;5014010;28;20943;-59
2023/06/28 01:51:20;;;;;;;3.67;3.10;;;14.00;99.90;;;;;;5013021;28;20559;-59
2023/06/28 01:53:48;;;;;;;4.77;3.40;;;14.00;99.90;;;;;;5012696;28;20486;-58
2023/06/28 01:56:16;;;;;;;4.37;2.97;;;14.00;99.90;;;;;;5011292;28;20479;-60
2023/06/28 01:58:46;;;;;;;5.57;3.50;;;13.90;99.90;;;;;;5016874;28;20553;-59
2023/06/28 02:01:14;;;;;;;3.13;2.93;;;14.00;99.90;;;;;;5015924;28;20471;-60
2023/06/28 02:03:42;;;;;;;6.70;3.60;;;14.00;99.90;;;;;;5016449;28;20472;-60
2023/06/28 02:06:10;;;;;;;3.90;3.33;;;14.00;99.90;;;;;;5017145;28;20471;-59
2023/06/28 02:08:39;;;;;;;4.30;3.37;;;14.00;99.90;;;;;;5018634;28;20908;-60
2023/06/28 02:11:06;;;;;;;3.43;3.20;;;14.00;99.90;;;;;;5013243;28;21042;-60
2023/06/28 02:13:35;;;;;;;4.10;3.40;;;14.00;99.90;;;;;;5018874;28;20546;-60
2023/06/28 02:16:04;;;;;;;4.60;3.50;;;14.00;99.90;;;;;;5008739;28;20502;-60
2023/06/28 02:18:34;;;;;;;5.00;2.83;;;14.00;99.90;;;;;;5018515;28;20947;-59
2023/06/28 02:21:02;;;;;;;4.43;3.30;;;14.00;99.90;;;;;;5016158;28;20507;-60
2023/06/28 02:23:30;;;;;;;3.77;3.47;;;14.00;99.90;;;;;;5014733;28;21635;-60
2023/06/28 02:25:58;;;;;;;3.90;3.60;;;14.00;99.90;;;;;;5014720;28;20477;-60
2023/06/28 02:28:26;;;;;;;6.07;3.80;;;14.00;99.90;;;;;;5011126;28;20475;-60
2023/06/28 02:30:54;;;;;;;5.80;3.47;;;13.90;99.90;;;;;;5014187;28;20572;-60
2023/06/28 02:33:23;;;;;;;3.73;3.40;;;14.00;99.90;;;;;;5017145;28;20503;-60
2023/06/28 02:35:51;;;;;;;5.17;3.73;;;13.90;99.90;;;;;;5014353;28;20571;-60
2023/06/28 02:38:19;;;;;;;5.43;4.40;;;14.00;99.90;;;;;;5013073;28;20594;-59
2023/06/28 02:40:47;;;;;;;4.40;3.80;;;13.90;99.90;;;;;;5016788;28;20472;-60
2023/06/28 02:43:15;;;;;;;4.40;3.57;;;14.00;99.90;;;;;;5019471;28;21101;-60
2023/06/28 02:45:43;;;;;;;6.20;3.63;;;14.00;99.90;;;;;;5019105;28;20472;-60
2023/06/28 02:48:11;;;;;;;4.47;3.77;;;14.00;99.90;;;;;;5016410;28;20475;-60
2023/06/28 02:50:40;;;;;;;6.20;3.93;;;14.00;99.90;;;;;;5017421;28;20475;-60
2023/06/28 02:53:09;;;;;;;4.77;4.30;;;14.00;99.90;;;;;;5019645;28;20498;-60
2023/06/28 02:55:37;;;;;;;6.03;4.00;;;14.00;99.90;;;;;;5024719;28;21058;-60
2023/06/28 02:58:05;;;;;;;6.07;4.53;;;14.00;99.90;;;;;;5022959;28;20564;-59
2023/06/28 03:00:33;;;;;;;4.70;3.90;;;14.00;99.90;;;;;;5018446;28;20915;-60
2023/06/28 03:03:03;;;;;;;5.07;4.00;;;14.00;99.90;;;;;;5020798;28;20488;-60
2023/06/28 03:05:32;;;;;;;11.20;4.37;;;14.00;99.90;;;;;;5017704;28;20467;-61
2023/06/28 03:08:02;;;;;;;5.97;4.93;;;14.00;99.90;;;;;;5026465;28;20570;-59
2023/06/28 03:10:30;;;;;;;7.80;4.30;;;14.00;99.90;;;;;;5022651;28;20507;-59
2023/06/28 03:12:58;;;;;;;10.47;4.23;;;14.00;99.90;;;;;;5013344;28;20886;-59
2023/06/28 03:15:26;;;;;;;5.67;4.10;;;13.90;99.90;;;;;;5020916;28;20866;-59
2023/06/28 03:17:54;;;;;;;4.67;4.20;;;14.00;99.90;;;;;;5018464;28;23340;-60
2023/06/28 03:20:22;;;;;;;6.57;4.97;;;14.00;99.90;;;;;;5018632;28;20570;-60
2023/06/28 03:22:50;;;;;;;5.40;4.50;;;14.00;99.90;;;;;;5019848;28;20503;-60
2023/06/28 03:25:20;;;;;;;7.10;4.70;;;14.10;99.90;;;;;;5019219;28;20574;-59
2023/06/28 03:27:48;;;;;;;5.10;4.70;;;14.10;99.90;;;;;;5020861;28;20521;-60
2023/06/28 03:30:16;;;;;;;7.53;4.80;;;14.00;99.90;;;;;;5020994;28;20482;-59
2023/06/28 03:32:44;;;;;;;5.47;4.97;;;14.10;99.90;;;;;;5017928;28;20502;-60
2023/06/28 03:35:12;;;;;;;6.70;5.00;;;14.10;99.90;;;;;;5020721;28;20474;-59
2023/06/28 03:37:40;;;;;;;5.47;4.83;;;14.10;99.90;;;;;;5018645;28;20567;-59
2023/06/28 03:40:09;;;;;;;5.07;4.53;;;14.10;99.90;;;;;;5019477;28;20472;-60
2023/06/28 03:42:38;;;;;;;7.40;4.60;;;14.10;99.90;;;;;;5016329;28;20487;-60
2023/06/28 03:45:07;;;;;;;7.77;4.97;;;14.20;99.90;;;;;;5022445;28;20505;-60
2023/06/28 03:47:35;;;;;;;5.33;4.83;;;14.20;99.90;;;;;;5017137;28;20539;-59
2023/06/28 03:50:03;;;;;;;7.53;4.60;;;14.30;99.90;;;;;;5015983;28;21102;-60
2023/06/28 03:52:31;;;;;;;5.90;5.30;;;14.30;99.90;;;;;;5018162;28;20586;-60
2023/06/28 03:54:59;;;;;;;8.70;5.63;;;14.20;99.90;;;;;;5016878;28;20839;-60
2023/06/28 03:57:27;;;;;;;10.90;5.77;;;14.30;99.90;;;;;;5018023;28;20468;-60
2023/06/28 03:59:57;;;;;;;6.30;5.37;;;14.30;99.90;;;;;;5017423;28;20483;-60
2023/06/28 04:02:25;;;;;;;8.73;5.80;;;14.30;99.90;;;;;;5016806;28;20511;-60
2023/06/28 04:04:54;;;;;;;5.87;5.20;;;14.30;99.90;;;;;;5010563;28;20573;-59
2023/06/28 04:07:24;;;;;;;8.13;4.80;;;14.40;99.90;;;;;;5016961;28;21048;-60
2023/06/28 04:09:53;;;;;;;6.70;4.60;;;14.40;99.90;;;;;;5019944;28;20526;-60
2023/06/28 04:12:21;;;;;;;8.30;5.57;;;14.50;99.90;;;;;;5014979;28;20518;-60
2023/06/28 04:14:50;;;;;;;7.83;5.33;;;14.50;99.90;;;;;;5016630;28;20478;-60
2023/06/28 04:17:19;;;;;;;7.60;5.03;;;14.50;99.90;;;;;;5020246;28;20583;-60
2023/06/28 04:19:47;;;;;;;7.77;5.20;;;14.50;99.90;;;;;;5015963;28;20536;-59
2023/06/28 04:22:15;;;;;;;6.83;4.93;;;14.50;99.90;;;;;;5011896;28;21232;-60
2023/06/28 04:24:43;;;;;;;7.47;5.50;;;14.60;99.90;;;;;;5019677;28;20478;-60
2023/06/28 04:27:11;;;;;;;6.77;5.43;;;14.60;99.90;;;;;;5019598;28;20554;-60
2023/06/28 04:29:39;;;;;;;5.77;4.70;;;14.60;99.90;;;;;;5015805;28;20498;-60
2023/06/28 04:32:23;;;;;;;5.27;4.70;;;14.70;99.90;;;;;;5012292;28;20492;-60
2023/06/28 04:34:53;;;;;;;5.00;4.40;;;14.70;99.90;;;;;;5015522;28;20907;-59
2023/06/28 04:37:21;;;;;;;5.13;4.00;;;14.70;99.90;;;;;;5013271;28;20471;-59
2023/06/28 04:39:49;;;;;;;6.13;4.63;;;14.80;99.90;;;;;;5013866;28;20479;-59
2023/06/28 04:42:17;;;;;;;5.77;4.27;;;14.80;99.90;;;;;;5008589;28;20571;-60
2023/06/28 04:44:46;;;;;;;5.23;3.87;;;14.90;99.90;;;;;;5009391;28;20463;-60
2023/06/28 04:47:16;;;;;;;6.33;4.30;;;15.00;99.90;;;;;;5014568;28;20515;-60
2023/06/28 04:49:48;;;;;;;5.30;3.87;;;15.00;99.90;;;;;;5011407;28;20493;-60
2023/06/28 04:52:16;;;;;;;4.77;4.10;;;15.00;99.90;;;;;;5006965;28;20491;-59
2023/06/28 04:54:44;;;;;;;4.60;4.20;;;15.10;99.90;;;;;;5014895;28;20488;-60
2023/06/28 04:57:14;;;;;;;7.53;4.50;;;15.10;99.90;;;;;;5015888;28;20511;-60
2023/06/28 04:59:42;;;;;;;6.33;4.40;;;15.10;99.90;;;;;;5000815;28;20495;-59
2023/06/28 05:02:10;;;;;;;9.10;4.83;;;15.20;99.90;;;;;;5011207;28;20602;-59
2023/06/28 05:04:39;;;;;;;4.80;4.10;;;15.20;99.90;;;;;;5015288;28;20841;-60
2023/06/28 05:07:09;;;;;;;4.43;4.00;;;15.20;99.90;;;;;;5010439;28;20468;-59
2023/06/28 05:09:38;;;;;;;6.27;4.23;;;15.20;99.90;;;;;;5012226;28;20971;-59
2023/06/28 05:12:07;;;;;;;7.50;4.30;;;15.30;99.90;;;;;;5003449;28;20495;-61
2023/06/28 05:14:35;;;;;;;4.63;4.00;;;15.40;99.90;;;;;;5004607;28;23746;-59
2023/06/28 05:17:03;;;;;;;7.53;4.47;;;15.40;99.90;;;;;;5009772;28;20486;-59
2023/06/28 05:19:32;;;;;;;6.27;3.93;;;15.50;99.90;;;;;;5016598;28;20480;-59
2023/06/28 05:21:59;;;;;;;3.77;3.33;;;15.60;99.90;;;;;;5018240;28;20488;-60
2023/06/28 05:24:29;;;;;;;4.70;3.70;;;15.60;99.90;;;;;;5018125;28;20629;-60
2023/06/28 05:26:57;;;;;;;4.77;3.87;;;15.60;99.90;;;;;;5013822;28;20827;-60
2023/06/28 05:29:25;;;;;;;5.97;3.70;;;15.60;99.90;;;;;;5016718;28;20495;-60
2023/06/28 05:31:53;;;;;;;4.90;3.50;;;15.70;99.90;;;;;;5016616;28;20881;-60
2023/06/28 05:34:21;;;;;;;3.50;3.20;;;15.70;99.90;;;;;;5018349;28;20574;-59
2023/06/28 05:36:49;;;;;;;6.00;3.40;;;15.80;99.90;;;;;;5018283;28;21301;-59
2023/06/28 05:39:17;;;;;;;4.73;3.40;;;15.80;99.90;;;;;;5016866;28;21056;-60
2023/06/28 05:41:46;;;;;;;8.13;3.63;;;15.90;99.90;;;;;;5018936;28;20591;-59
2023/06/28 05:44:17;;;;;;;4.20;3.23;;;16.00;99.90;;;;;;5020656;28;20634;-60
2023/06/28 05:46:45;;;;;;;5.97;3.33;;;16.00;99.90;;;;;;5016788;28;20545;-60
2023/06/28 05:49:13;;;;;;;4.73;3.40;;;16.00;99.90;;;;;;5016694;28;20598;-59
2023/06/28 05:51:41;;;;;;;5.60;3.30;;;16.10;99.90;;;;;;5016947;28;20574;-60
2023/06/28 05:54:09;;;;;;;6.60;3.33;;;16.10;99.90;;;;;;5013623;28;21263;-60
2023/06/28 05:56:37;;;;;;;5.03;3.03;;;16.20;99.90;;;;;;5016810;28;21045;-60
2023/06/28 05:59:06;;;;;;;5.00;3.30;;;16.20;99.90;;;;;;5039469;28;20464;-60
2023/06/28 06:01:34;;;;;;;4.67;2.87;;;16.30;99.90;;;;;;5028320;28;20520;-61
2023/06/28 06:04:02;;;;;;;4.53;3.00;;;16.40;99.90;;;;;;5015886;28;20463;-62
2023/06/28 06:06:30;;;;;;;7.00;2.90;;;16.50;99.90;;;;;;5017037;28;20890;-59
2023/06/28 06:08:58;;;;;;;3.90;2.80;;;16.50;99.90;;;;;;5016039;28;21048;-59
2023/06/28 06:11:28;;;;;;;7.00;3.37;;;16.60;99.90;;;;;;5010150;28;20515;-59
2023/06/28 06:13:56;;;;;;;7.47;3.10;;;16.70;99.90;;;;;;5010264;28;20494;-59
2023/06/28 06:16:25;;;;;;;4.67;2.70;;;16.70;99.90;;;;;;5016332;28;20467;-62
2023/06/28 06:18:53;;;;;;;6.50;2.90;;;16.80;99.90;;;;;;5012543;28;20482;-59
2023/06/28 06:21:21;;;;;;;7.10;2.73;;;16.80;99.90;;;;;;5010542;28;20582;-58
2023/06/28 06:23:51;;;;;;;6.80;2.90;;;16.90;99.90;;;;;;5005192;28;20478;-60
2023/06/28 06:26:19;;;;;;;5.37;2.50;;;17.00;99.90;;;;;;5013312;28;20951;-59
2023/06/28 06:28:47;;;;;;;4.50;2.83;;;17.00;99.90;;;;;;5017737;28;21072;-59
2023/06/28 06:31:15;;;;;;;4.03;2.43;;;17.10;99.90;;;;;;5030204;28;20471;-60
2023/06/28 06:33:44;;;;;;;4.33;2.40;;;17.10;99.90;;;;;;5032246;28;20485;-58
2023/06/28 06:36:12;;;;;;;2.97;2.70;;;17.20;99.90;;;;;;5034678;28;20539;-59
2023/06/28 06:38:41;;;;;;;5.90;3.20;;;17.30;99.90;;;;;;5034762;28;20539;-59
2023/06/28 06:41:09;;;;;;;3.83;2.60;;;17.30;99.90;;;;;;5033160;28;20471;-58
2023/06/28 06:43:37;;;;;;;5.57;2.60;;;17.40;99.90;;;;;;5033558;28;20498;-63
2023/06/28 06:46:05;;;;;;;6.10;2.83;;;17.40;99.90;;;;;;5031719;28;20547;-59
2023/06/28 06:48:33;;;;;;;4.97;3.00;;;17.50;99.90;;;;;;5033673;28;20527;-59
2023/06/28 06:51:04;;;;;;;3.73;2.70;;;17.50;99.90;;;;;;5032892;28;21079;-59
2023/06/28 06:53:32;;;;;;;5.53;2.70;;;17.60;99.90;;;;;;5035621;28;20470;-59
2023/06/28 06:56:00;;;;;;;4.80;2.77;;;17.60;99.90;;;;;;5033420;28;20567;-60
2023/06/28 06:58:28;;;;;;;4.13;2.40;;;17.50;99.90;;;;;;5033563;28;20526;-59
2023/06/28 07:00:56;;;;;;;3.90;2.60;;;17.50;99.90;;;;;;5023431;28;20597;-60
2023/06/28 07:03:24;;;;;;;5.83;2.60;;;17.60;99.90;;;;;;5016746;28;20494;-59
2023/06/28 07:05:52;;;;;;;4.17;2.80;;;17.60;99.90;;;;;;5019305;28;20526;-60
2023/06/28 07:08:22;;;;;;;5.60;2.90;;;17.70;99.90;;;;;;5016236;28;20475;-59
2023/06/28 07:10:50;;;;;;;5.00;2.47;;;17.70;99.90;;;;;;5019179;28;20539;-60
2023/06/28 07:13:18;;;;;;;3.27;2.40;;;17.80;99.90;;;;;;5017009;28;20488;-59
2023/06/28 07:15:46;;;;;;;6.10;3.20;;;17.90;99.90;;;;;;5009471;28;20545;-59
2023/06/28 07:18:14;;;;;;;6.60;2.97;;;18.00;99.90;;;;;;5015207;28;20485;-59
2023/06/28 07:20:42;;;;;;;6.13;2.70;;;18.00;99.90;;;;;;5011755;28;20471;-59
2023/06/28 07:23:10;;;;;;;2.50;2.30;;;18.10;99.90;;;;;;5015732;28;20573;-60
2023/06/28 07:25:40;;;;;;;3.13;2.20;;;18.10;99.90;;;;;;5014827;28;20470;-60
2023/06/28 07:28:08;;;;;;;2.60;2.40;;;18.20;99.90;;;;;;5020421;28;20462;-60
2023/06/28 07:30:53;;;;;;;3.80;2.70;;;18.20;99.90;;;;;;5014968;28;20483;-59
2023/06/28 07:33:22;;;;;;;3.40;2.20;;;18.30;99.90;;;;;;5017448;28;20587;-59
2023/06/28 07:35:51;;;;;;;2.93;2.27;;;18.30;99.90;;;;;;5016984;28;20492;-59
2023/06/28 07:38:20;;;;;;;8.90;3.43;;;18.40;99.90;;;;;;5020768;28;20506;-59
2023/06/28 07:40:50;;;;;;;4.20;2.93;;;18.60;99.90;;;;;;5010906;28;20534;-60
2023/06/28 07:43:19;;;;;;;4.80;2.60;;;18.70;99.90;;;;;;5015948;28;20567;-60
2023/06/28 07:45:47;;;;;;;3.60;2.77;;;18.80;99.90;;;;;;5017821;28;20468;-58
2023/06/28 07:48:15;;;;;;;4.50;2.60;;;18.90;99.90;;;;;;5021653;28;20471;-58
2023/06/28 07:50:43;;;;;;;3.70;2.50;;;18.90;99.90;;;;;;5021174;28;20610;-60
2023/06/28 07:53:11;;;;;;;5.43;2.77;;;19.00;99.90;;;;;;5020672;28;20501;-59
2023/06/28 07:55:39;;;;;;;2.90;2.60;;;19.00;99.90;;;;;;5026866;28;20523;-59
2023/06/28 07:58:09;;;;;;;6.27;2.47;;;19.00;99.90;;;;;;5023621;28;20880;-60
2023/06/28 08:00:37;;;;;;;3.37;2.90;;;19.10;99.90;;;;;;5023481;28;20476;-59
2023/06/28 08:03:05;;;;;;;3.10;2.57;;;19.20;99.90;;;;;;5018184;28;20574;-60
2023/06/28 08:05:33;;;;;;;4.70;2.83;;;19.20;99.90;;;;;;5021846;28;20475;-59
2023/06/28 08:08:01;;;;;;;3.37;3.00;;;19.20;99.90;;;;;;5017590;28;20472;-59
2023/06/28 08:10:29;;;;;;;6.47;2.97;;;19.10;99.90;;;;;;5017875;28;20578;-60
2023/06/28 08:12:57;;;;;;;4.93;3.10;;;19.00;99.90;;;;;;5020058;28;21047;-59
2023/06/28 08:15:27;;;;;;;4.50;3.03;;;19.00;99.90;;;;;;5016239;28;21248;-59
2023/06/28 08:17:55;;;;;;;4.73;3.80;;;19.00;99.90;;;;;;5020900;28;20630;-60
2023/06/28 08:20:23;;;;;;;6.50;3.90;;;19.00;99.90;;;;;;5018994;28;20472;-60
2023/06/28 08:22:51;;;;;;;6.60;3.43;;;19.00;99.90;;;;;;5019939;28;20518;-59
2023/06/28 08:25:19;;;;;;;6.30;3.00;;;19.10;99.90;;;;;;5020805;28;21250;-59
2023/06/28 08:27:47;;;;;;;4.60;3.23;;;19.30;99.90;;;;;;5019221;28;20596;-58
2023/06/28 08:30:15;;;;;;;5.23;3.07;;;19.50;99.90;;;;;;5021914;28;20467;-60
2023/06/28 08:32:46;;;;;;;3.33;3.03;;;19.60;99.90;;;;;;5020662;28;20589;-60
2023/06/28 08:35:14;;;;;;;4.90;2.93;;;19.70;99.90;;;;;;5023495;28;20492;-60
2023/06/28 08:37:42;;;;;;;5.80;2.80;;;19.80;99.90;;;;;;5017882;28;20943;-59
2023/06/28 08:40:11;;;;;;;4.90;3.00;;;19.80;99.90;;;;;;5020864;28;21222;-63
2023/06/28 08:42:41;;;;;;;5.40;3.30;;;19.90;99.90;;;;;;5018468;28;20487;-59
2023/06/28 08:45:10;;;;;;;5.00;2.90;;;19.90;99.90;;;;;;5020561;28;20466;-60
2023/06/28 08:47:39;;;;;;;6.30;3.17;;;19.90;99.90;;;;;;5021125;28;20479;-60
2023/06/28 08:50:10;;;;;;;4.20;3.27;;;19.90;99.90;;;;;;5022072;28;20919;-60
2023/06/28 08:52:39;;;;;;;6.70;3.60;;;19.80;99.90;;;;;;5020819;28;20518;-60
2023/06/28 08:55:08;;;;;;;4.13;3.10;;;19.80;99.90;;;;;;5015735;28;20554;-60
2023/06/28 08:57:39;;;;;;;4.67;3.03;;;19.70;99.90;;;;;;5020113;28;21513;-60
2023/06/28 09:00:10;;;;;;;4.83;3.27;;;19.80;99.90;;;;;;5021542;28;20505;-60
2023/06/28 09:02:41;;;;;;;3.37;3.03;;;19.80;99.90;;;;;;5017926;28;21220;-58
2023/06/28 09:05:11;;;;;;;3.33;2.70;;;19.80;99.90;;;;;;5019631;28;20470;-59
2023/06/28 09:07:41;;;;;;;5.00;2.87;;;19.90;99.90;;;;;;5021160;28;20467;-59
2023/06/28 09:10:11;;;;;;;3.13;2.93;;;20.10;99.90;;;;;;5020508;28;21016;-60
2023/06/28 09:12:39;;;;;;;4.47;3.47;;;20.20;99.90;;;;;;5019565;28;20575;-60
2023/06/28 09:15:08;;;;;;;3.37;2.90;;;20.30;99.90;;;;;;5018049;28;21209;-60
2023/06/28 09:17:36;;;;;;;3.67;2.97;;;20.40;99.90;;;;;;5020348;28;20459;-60
2023/06/28 09:20:17;;;;;;;3.70;3.40;;;20.40;99.90;;;;;;5021082;28;20831;-60
2023/06/28 09:22:55;;;;;;;3.30;2.80;;;20.40;99.90;;;;;;5018534;28;22774;-61
2023/06/28 09:25:24;;;;;;;3.17;2.87;;;20.60;99.90;;;;;;5019728;28;20506;-58
2023/06/28 09:27:53;;;;;;;3.50;3.17;;;20.70;99.90;;;;;;5020208;28;20555;-59
2023/06/28 09:30:22;;;;;;;6.67;3.20;;;20.70;99.90;;;;;;5020408;28;21151;-60
2023/06/28 09:32:53;;;;;;;5.50;3.30;;;20.60;99.90;;;;;;5012209;28;20544;-59
2023/06/28 09:35:23;;;;;;;3.13;2.80;;;20.60;99.90;;;;;;5015540;28;20479;-59
2023/06/28 09:37:57;;;;;;;3.97;2.70;;;20.70;99.90;;;;;;5012179;28;20842;-59
2023/06/28 09:40:26;;;;;;;3.03;2.50;;;20.80;99.90;;;;;;5020295;28;20849;-58
2023/06/28 09:42:54;;;;;;;6.50;3.00;;;20.90;99.90;;;;;;5019883;28;20480;-60
2023/06/28 09:45:26;;;;;;;4.10;3.03;;;21.10;99.90;;;;;;5019172;28;20468;-60
2023/06/28 09:47:57;;;;;;;5.53;3.37;;;21.00;99.90;;;;;;5017103;28;20514;-60
2023/06/28 09:50:36;;;;;;;5.70;3.60;;;20.80;99.90;;;;;;5019145;28;20522;-60
2023/06/28 09:53:06;;;;;;;4.80;3.07;;;20.60;99.90;;;;;;5015121;28;20495;-59
2023/06/28 09:55:34;;;;;;;5.13;3.17;;;20.50;99.90;;;;;;5017535;28;20472;-59
2023/06/28 09:58:03;;;;;;;5.23;3.53;;;20.50;99.90;;;;;;5018327;28;20571;-59
2023/06/28 10:00:32;;;;;;;3.77;2.90;;;20.50;99.90;;;;;;5019862;28;20478;-59
2023/06/28 10:03:05;;;;;;;3.53;3.23;;;20.60;99.90;;;;;;5017384;28;20512;-60
2023/06/28 10:05:36;;;;;;;3.97;3.37;;;20.60;99.90;;;;;;5018584;28;21048;-60
2023/06/28 10:08:07;;;;;;;5.37;3.33;;;20.70;99.90;;;;;;5016307;28;20551;-60
2023/06/28 10:10:37;;;;;;;4.30;3.43;;;20.70;99.90;;;;;;5015755;28;20948;-60
2023/06/28 10:13:08;;;;;;;5.60;2.57;;;20.70;99.90;;;;;;5015626;28;20515;-60
2023/06/28 10:15:43;;;;;;;3.93;2.63;;;20.70;99.90;;;;;;5016558;28;21000;-59
2023/06/28 10:18:12;;;;;;;2.93;2.73;;;20.70;99.90;;;;;;5019160;28;20613;-59
2023/06/28 10:20:43;;;;;;;3.00;2.67;;;20.70;99.90;;;;;;5016752;28;20563;-59
2023/06/28 10:23:12;;;;;;;5.30;2.90;;;20.70;99.90;;;;;;5016035;28;20593;-60
2023/06/28 10:25:41;;;;;;;3.57;3.20;;;20.80;99.90;;;;;;5014702;28;20575;-60
2023/06/28 10:28:10;;;;;;;6.00;3.53;;;21.00;99.90;;;;;;5019378;28;20472;-60
2023/06/28 10:30:40;;;;;;;3.73;3.00;;;21.10;99.90;;;;;;5025390;28;20546;-60
2023/06/28 10:33:10;;;;;;;4.50;2.80;;;21.20;99.90;;;;;;5011051;28;20487;-59
2023/06/28 10:35:39;;;;;;;4.53;2.83;;;21.20;99.90;;;;;;5018643;28;20474;-59
2023/06/28 10:38:09;;;;;;;5.60;2.67;;;21.20;99.90;;;;;;5015688;28;20492;-58
2023/06/28 10:40:39;;;;;;;4.77;2.77;;;21.10;99.90;;;;;;5018506;28;20567;-59
2023/06/28 10:43:07;;;;;;;2.70;2.50;;;21.20;99.90;;;;;;5016136;28;20997;-60
2023/06/28 10:45:35;;;;;;;4.47;2.63;;;21.30;99.90;;;;;;5015499;28;20567;-60
2023/06/28 10:48:05;;;;;;;2.40;2.20;;;21.50;99.90;;;;;;5010625;28;20542;-60
2023/06/28 10:50:41;;;;;;;3.07;2.50;;;21.70;99.90;;;;;;5021087;28;20468;-60
2023/06/28 10:53:20;;;;;;;2.77;2.50;;;21.80;99.90;;;;;;5017714;28;20491;-58
2023/06/28 10:56:11;;;;;;;2.37;2.13;;;22.00;99.90;;;;;;5015138;28;20558;-60
2023/06/28 10:58:40;;;;;;;6.43;2.30;;;22.20;99.90;;;;;;5018996;28;20514;-59
2023/06/28 11:01:09;;;;;;;2.93;2.07;;;22.10;99.90;;;;;;5019003;28;20536;-60
2023/06/28 11:03:39;;;;;;;4.27;2.57;;;22.00;99.90;;;;;;5022756;28;20476;-59
2023/06/28 11:06:08;;;;;;;4.90;2.07;;;22.00;99.90;;;;;;5019243;28;20467;-59
2023/06/28 11:08:40;;;;;;;4.73;2.20;;;22.00;99.90;;;;;;5020126;28;21142;-60
2023/06/28 11:11:10;;;;;;;3.07;2.30;;;22.00;99.90;;;;;;5018898;28;20484;-60
2023/06/28 11:13:46;;;;;;;2.20;1.97;;;22.10;99.90;;;;;;5018760;28;20841;-60
2023/06/28 11:16:19;;;;;;;4.27;2.00;;;22.30;99.90;;;;;;5013898;28;20471;-60
2023/06/28 11:18:47;;;;;;;3.73;2.20;;;22.40;99.90;;;;;;5016925;28;20590;-61
2023/06/28 11:21:16;;;;;;;2.90;2.00;;;22.50;99.90;;;;;;5019234;28;20480;-60
2023/06/28 11:23:47;;;;;;;2.70;2.50;;;22.70;99.90;;;;;;5018576;28;20463;-60
2023/06/28 11:26:16;;;;;;;2.60;2.30;;;22.80;99.90;;;;;;5019674;28;20486;-60
2023/06/28 11:28:49;;;;;;;3.30;2.00;;;22.90;99.90;;;;;;5020802;28;20475;-60
2023/06/28 11:31:19;;;;;;;3.53;2.20;;;23.00;99.90;;;;;;5018294;28;21014;-59
2023/06/28 11:33:50;;;;;;;4.17;2.20;;;23.10;99.90;;;;;;5020067;28;20475;-59
2023/06/28 11:36:19;;;;;;;2.83;2.07;;;23.30;99.90;;;;;;5021323;28;20563;-59
2023/06/28 11:38:48;;;;;;;3.23;2.33;;;23.30;99.90;;;;;;5019955;28;20466;-60
2023/06/28 11:41:17;;;;;;;2.13;1.90;;;23.30;99.90;;;;;;5019659;28;20490;-59
2023/06/28 11:43:46;;;;;;;3.80;1.97;;;23.30;99.90;;;;;;5020700;28;21392;-60
2023/06/28 11:46:18;;;;;;;2.27;1.70;;;23.30;99.90;;;;;;5020507;28;20494;-59
2023/06/28 11:48:47;;;;;;;4.00;1.90;;;23.30;99.90;;;;;;5015619;28;20492;-59
2023/06/28 11:51:15;;;;;;;2.63;2.40;;;23.30;99.90;;;;;;5017513;28;20929;-60
2023/06/28 11:53:49;;;;;;;2.10;1.90;;;23.30;99.90;;;;;;5018186;28;20558;-60
2023/06/28 11:56:17;;;;;;;2.60;2.00;;;23.40;99.90;;;;;;5022385;28;20475;-60
2023/06/28 11:58:46;;;;;;;2.23;2.00;;;23.40;99.90;;;;;;5021153;28;21076;-60
2023/06/28 12:01:21;;;;;;;2.63;2.00;;;23.40;99.90;;;;;;5015588;28;20491;-60
2023/06/28 12:03:49;;;;;;;2.60;2.30;;;23.40;99.90;;;;;;5020106;28;20520;-58
2023/06/28 12:06:18;;;;;;;2.07;1.97;;;23.40;99.90;;;;;;5016713;28;20471;-59
2023/06/28 12:08:46;;;;;;;2.00;1.70;;;23.60;99.90;;;;;;5014944;28;20476;-59
2023/06/28 12:11:16;;;;;;;2.27;2.07;;;23.70;99.90;;;;;;5015335;28;20575;-60
2023/06/28 12:13:45;;;;;;;2.80;1.77;;;23.70;99.90;;;;;;5018665;28;21440;-58
2023/06/28 12:16:14;;;;;;;2.20;2.00;;;23.90;99.90;;;;;;5015907;28;20482;-59
2023/06/28 12:18:59;;;;;;;2.10;1.90;;;24.00;99.90;;;;;;5017439;28;20578;-60
2023/06/28 12:21:28;;;;;;;3.03;2.10;;;24.10;99.90;;;;;;5014788;28;20926;-59
2023/06/28 12:24:12;;;;;;;2.63;1.97;;;24.00;99.90;;;;;;5009018;28;20976;-60
2023/06/28 12:26:44;;;;;;;3.90;1.80;;;24.00;99.90;;;;;;5013360;28;20580;-60
2023/06/28 12:29:12;;;;;;;1.70;1.60;;;24.00;99.90;;;;;;5015337;28;20550;-61
2023/06/28 12:31:41;;;;;;;2.70;1.77;;;24.00;99.90;;;;;;5017377;28;20518;-59
2023/06/28 12:34:10;;;;;;;4.43;1.80;;;24.00;99.90;;;;;;5017780;28;20471;-59
2023/06/28 12:36:40;;;;;;;2.20;1.60;;;24.10;99.90;;;;;;5012098;28;20499;-60
2023/06/28 12:39:08;;;;;;;2.23;1.87;;;24.30;99.90;;;;;;5017346;28;20488;-60
2023/06/28 12:41:36;;;;;;;2.40;2.03;;;24.50;99.90;;;;;;5017965;28;20569;-60
2023/06/28 12:44:05;;;;;;;2.10;2.00;;;24.70;99.90;;;;;;5015941;28;20574;-60
2023/06/28 12:46:33;;;;;;;3.53;2.10;;;24.90;99.90;;;;;;5016812;28;21174;-61
2023/06/28 12:49:04;;;;;;;2.63;1.97;;;24.90;99.90;;;;;;5016891;28;20492;-61
2023/06/28 12:51:32;;;;;;;2.97;2.13;;;25.00;99.90;;;;;;5012192;28;20491;-60
2023/06/28 12:54:00;;;;;;;4.53;2.27;;;25.00;99.90;;;;;;5010600;28;20554;-64
2023/06/28 12:56:30;;;;;;;2.30;1.80;;;25.10;99.90;;;;;;5015358;28;20471;-65